Stena Superior — ZCEF1 — position and weather

sailwx.info

Track history (hours):
 
Tides and Currents Weather Stations Pressure Air Temp Water Temp Dewpoint Dewpoint Depression Visibility Wind Speed Wind Dir Waves Ship Positions

Stena Superior

Last reported at 2018-Feb-16 19:43 UTC. Time now 2018-Feb-19 12:11 UTC.
Position N 32°19' W 117°34'.

Length 273 m; draft 9 m.

Type: Tanker. MMSI: 310620000.

Date/timePositionNaut miles runAvg speedWind from/ knotsBaromVisibWave heightAir tempDewpointWater temp
2018-Feb-16 19:43N 32°19' W 117°34'411.3
2018-Feb-16 19:19N 32°24' W 117°36'411.5
2018-Feb-16 19:00N 32°27' W 117°37'612.8
2018-Feb-16 18:30N 32°33' W 117°39'613.0
2018-Feb-16 18:00N 32°39' W 117°42'613.0
2018-Feb-16 17:30N 32°45' W 117°46'713.1
2018-Feb-16 17:01N 32°50' W 117°50'713.1
2018-Feb-16 16:30N 32°56' W 117°54'713.1
2018-Feb-16 16:00N 33°02' W 117°58'712.8
2018-Feb-16 15:28N 33°08' W 118°02'612.9
2018-Feb-16 15:00N 33°13' W 118°05'813.0
2018-Feb-16 14:24N 33°19' W 118°10'813.0
2018-Feb-16 13:50N 33°27' W 118°13'512.5
2018-Feb-16 13:28N 33°30' W 118°16'1512.7
2018-Feb-16 12:18N 33°38' W 118°31'412.1
2018-Feb-16 12:00N 33°41' W 118°32'612.5
2018-Feb-16 11:30N 33°47' W 118°30'710.0
2018-Feb-16 10:49N 33°54' W 118°28'  
2018-Feb-14 00:19N 33°54' W 118°27'0 0.0
2018-Feb-13 23:58N 33°54' W 118°27'0 0.6
2018-Feb-13 23:24N 33°54' W 118°27'3 2.3
2018-Feb-13 21:58N 33°52' W 118°30'1 2.3
2018-Feb-13 21:30N 33°51' W 118°30'3 6.5
2018-Feb-13 21:00N 33°47' W 118°30'4 7.9
2018-Feb-13 20:29N 33°43' W 118°29'5 8.4
2018-Feb-13 19:51N 33°40' W 118°24'3 8.2
2018-Feb-13 19:30N 33°39' W 118°21'5 9.9
2018-Feb-13 19:00N 33°38' W 118°15'5 9.7
2018-Feb-13 18:30N 33°39' W 118°10'3 5.7
2018-Feb-13 18:00N 33°41' W 118°07'0 0.1
2018-Feb-13 17:24N 33°41' W 118°08'0 0.0
2018-Feb-13 16:54N 33°41' W 118°08'0 0.0
2018-Feb-13 16:30N 33°41' W 118°08'0 0.0
2018-Feb-13 16:00N 33°41' W 118°08'0 0.0
2018-Feb-13 15:24N 33°41' W 118°08'0 0.1
2018-Feb-13 15:00N 33°41' W 118°08'0 0.1
2018-Feb-13 12:01N 33°41' W 118°07'0 0.2
2018-Feb-13 11:46N 33°41' W 118°07'0 0.0
2018-Feb-13 11:28N 33°41' W 118°07'0 0.0
2018-Feb-13 10:58N 33°41' W 118°07'0 0.0
2018-Feb-13 10:28N 33°41' W 118°07'0 0.1
2018-Feb-13 09:52N 33°41' W 118°07'0 0.0
2018-Feb-13 09:25N 33°41' W 118°07'0 0.0
2018-Feb-13 06:16N 33°41' W 118°07'0 0.0
2018-Feb-13 03:10N 33°41' W 118°07'0 0.0
2018-Feb-13 02:46N 33°41' W 118°07'0 0.0
2018-Feb-13 01:43N 33°41' W 118°07'0 0.1
2018-Feb-13 01:28N 33°41' W 118°07'0 0.0
2018-Feb-13 00:58N 33°41' W 118°07'0 0.0
2018-Feb-13 00:28N 33°41' W 118°07'0 0.0
2018-Feb-12 23:55N 33°41' W 118°07'0 0.0
2018-Feb-12 23:28N 33°41' W 118°07'0 0.0
2018-Feb-12 22:58N 33°41' W 118°07'0 0.0
2018-Feb-12 22:28N 33°41' W 118°07'0 0.0
2018-Feb-12 21:58N 33°41' W 118°07'0 0.0
2018-Feb-12 21:28N 33°41' W 118°07'0 0.0
2018-Feb-12 20:58N 33°41' W 118°07'0 0.0
2018-Feb-12 20:28N 33°41' W 118°07'0 0.0
2018-Feb-12 19:58N 33°41' W 118°07'0 0.0
2018-Feb-12 19:28N 33°41' W 118°07'0 0.0
2018-Feb-12 18:58N 33°41' W 118°07'0 0.0
2018-Feb-12 18:28N 33°41' W 118°07'0 0.0
2018-Feb-12 17:58N 33°41' W 118°07'0 0.0
2018-Feb-12 17:28N 33°41' W 118°07'0 0.1
2018-Feb-12 16:52N 33°41' W 118°07'0 0.1
2018-Feb-12 16:28N 33°41' W 118°07'0 0.0
2018-Feb-12 15:58N 33°41' W 118°07'0 0.0
2018-Feb-12 15:16N 33°41' W 118°07'0 0.0
2018-Feb-12 14:55N 33°41' W 118°07'0 0.0
2018-Feb-12 14:04N 33°41' W 118°07'0 0.0
2018-Feb-12 13:52N 33°41' W 118°07'0 0.0
2018-Feb-12 12:58N 33°41' W 118°07'0 0.0
2018-Feb-12 05:46N 33°41' W 118°07'0 0.1
2018-Feb-12 04:25N 33°41' W 118°07'0 0.0
2018-Feb-12 03:52N 33°41' W 118°07'0 0.0
2018-Feb-12 01:43N 33°41' W 118°07'0 0.0
2018-Feb-12 01:28N 33°41' W 118°07'0 0.0
2018-Feb-12 00:58N 33°41' W 118°07'0 0.0
2018-Feb-12 00:28N 33°41' W 118°07'0 0.0
2018-Feb-11 23:58N 33°41' W 118°07'0 0.0
2018-Feb-11 23:28N 33°41' W 118°07'0 0.0
2018-Feb-11 22:58N 33°41' W 118°07'0 0.0
2018-Feb-11 22:28N 33°41' W 118°07'0 0.0
2018-Feb-11 21:58N 33°41' W 118°07'0 0.0
2018-Feb-11 21:28N 33°41' W 118°07'0 0.0
2018-Feb-11 20:58N 33°41' W 118°07'0 0.0
2018-Feb-11 20:28N 33°41' W 118°07'0 0.0
2018-Feb-11 19:58N 33°41' W 118°07'0 0.1
2018-Feb-11 19:28N 33°41' W 118°07'0 0.0
2018-Feb-11 18:58N 33°41' W 118°07'0 0.0
2018-Feb-11 18:28N 33°41' W 118°07'0 0.0
2018-Feb-11 17:58N 33°41' W 118°07'0 0.0
2018-Feb-11 17:28N 33°41' W 118°07'0 0.0
2018-Feb-11 16:58N 33°41' W 118°07'0 0.0
2018-Feb-11 16:28N 33°41' W 118°07'0 0.1
2018-Feb-11 15:55N 33°41' W 118°07'0 0.1
2018-Feb-11 15:28N 33°41' W 118°07'0 0.0
2018-Feb-11 14:58N 33°41' W 118°07'0 0.0
2018-Feb-11 14:19N 33°41' W 118°07'0 0.0
2018-Feb-11 01:40N 33°41' W 118°07'0 0.0
2018-Feb-11 01:22N 33°41' W 118°07'0 0.0
2018-Feb-11 00:49N 33°41' W 118°07'0 0.0
2018-Feb-11 00:28N 33°41' W 118°07'0 0.0
2018-Feb-10 23:58N 33°41' W 118°07'0 0.1
2018-Feb-10 23:28N 33°41' W 118°08'0 0.0
2018-Feb-10 22:58N 33°41' W 118°08'0 0.0
2018-Feb-10 22:28N 33°41' W 118°08'0 0.0
2018-Feb-10 21:58N 33°41' W 118°08'0 0.0
2018-Feb-10 21:22N 33°41' W 118°08'0 0.0
2018-Feb-10 20:58N 33°41' W 118°08'0 0.0
2018-Feb-10 20:28N 33°41' W 118°08'0 0.0
2018-Feb-10 19:34N 33°41' W 118°08'0 0.0
2018-Feb-10 19:28N 33°41' W 118°08'0 0.1
2018-Feb-10 18:58N 33°41' W 118°08'0 0.0
2018-Feb-10 18:28N 33°41' W 118°08'0 0.0
2018-Feb-10 17:55N 33°41' W 118°08'0 0.1
2018-Feb-10 17:28N 33°41' W 118°08'0 0.0
2018-Feb-10 16:58N 33°41' W 118°08'0 0.0
2018-Feb-10 16:28N 33°41' W 118°08'0 0.0
2018-Feb-10 15:58N 33°41' W 118°08'0 0.0
2018-Feb-10 15:19N 33°41' W 118°08'0 0.0
2018-Feb-10 09:34N 33°41' W 118°08'0 0.0
2018-Feb-10 09:16N 33°41' W 118°08'0 0.0
2018-Feb-10 08:04N 33°41' W 118°07'0 0.0
2018-Feb-10 07:52N 33°41' W 118°07'0 0.1
2018-Feb-10 07:22N 33°41' W 118°08'0 0.1
2018-Feb-10 06:58N 33°41' W 118°07'0 0.1
2018-Feb-10 06:28N 33°41' W 118°08'0 0.0
2018-Feb-10 05:58N 33°41' W 118°08'0 0.0
2018-Feb-10 05:28N 33°41' W 118°08'0 0.0
2018-Feb-10 04:58N 33°41' W 118°08'0 0.1
2018-Feb-10 04:13N 33°41' W 118°07'0 0.0
2018-Feb-10 03:58N 33°41' W 118°07'0 0.1
2018-Feb-10 03:28N 33°41' W 118°07'0 0.0
2018-Feb-10 02:55N 33°41' W 118°07'0 0.0
2018-Feb-10 02:28N 33°41' W 118°07'0 0.0
2018-Feb-10 01:52N 33°41' W 118°07'0 0.0
2018-Feb-10 01:28N 33°41' W 118°07'0 0.0
2018-Feb-10 00:58N 33°41' W 118°07'0 0.1
2018-Feb-10 00:25N 33°41' W 118°07'0 0.0
2018-Feb-09 23:58N 33°41' W 118°07'0 0.0
2018-Feb-09 23:28N 33°41' W 118°07'0 0.0
2018-Feb-09 22:58N 33°41' W 118°07'0 0.0
2018-Feb-09 22:46N 33°41' W 118°07'0 0.0
2018-Feb-08 01:25N 33°41' W 118°07'0 0.0
2018-Feb-08 00:58N 33°41' W 118°07'0 0.0
2018-Feb-08 00:28N 33°41' W 118°07'0 0.0
2018-Feb-07 23:58N 33°41' W 118°07'0 0.0
2018-Feb-07 23:28N 33°41' W 118°07'0 0.0
2018-Feb-07 22:58N 33°41' W 118°07'0 0.0
2018-Feb-07 22:28N 33°41' W 118°07'0 0.0
2018-Feb-07 21:58N 33°41' W 118°07'0 0.0
2018-Feb-07 21:31N 33°41' W 118°07'0 0.0
2018-Feb-07 09:19N 33°41' W 118°07'0 0.0
2018-Feb-07 08:58N 33°41' W 118°07'0 0.0
2018-Feb-07 08:28N 33°41' W 118°07'0 0.0
2018-Feb-07 07:58N 33°41' W 118°07'0 0.0
2018-Feb-07 06:43N 33°41' W 118°07'0 0.0
2018-Feb-07 05:28N 33°41' W 118°07'0 0.1
2018-Feb-07 04:43N 33°41' W 118°07'0 0.0
2018-Feb-07 04:28N 33°41' W 118°07'0 0.0
2018-Feb-07 03:58N 33°41' W 118°07'0 0.1
2018-Feb-07 03:28N 33°41' W 118°07'0 0.0
2018-Feb-07 02:58N 33°41' W 118°07'0 0.0
2018-Feb-07 02:28N 33°41' W 118°07'0 0.0
2018-Feb-07 01:58N 33°41' W 118°07'0 0.0
2018-Feb-07 00:55N 33°41' W 118°07'0 0.0
2018-Feb-07 00:28N 33°41' W 118°07'0 0.0
2018-Feb-06 23:58N 33°41' W 118°07'0 0.0
2018-Feb-06 23:28N 33°41' W 118°07'0 0.0
2018-Feb-06 22:58N 33°41' W 118°07'0 0.1
2018-Feb-06 22:28N 33°41' W 118°07'0 0.0
2018-Feb-06 21:58N 33°41' W 118°07'0 0.0
2018-Feb-06 21:28N 33°41' W 118°07'0 0.1
2018-Feb-06 20:58N 33°41' W 118°07'0 0.0
2018-Feb-06 20:28N 33°41' W 118°07'0 0.0
2018-Feb-06 19:58N 33°41' W 118°07'  
Track history (hours):
 
Tides and Currents Weather Stations Pressure Air Temp Water Temp Dewpoint Dewpoint Depression Visibility Wind Speed Wind Dir Waves Ship Positions

Stena Superior

Last reported at 2018-Feb-16 19:43 UTC. Time now 2018-Feb-19 12:11 UTC.
Position N 32°19' W 117°34'.

Length 273 m; draft 9 m.

Type: Tanker. MMSI: 310620000.

Date/timePositionNaut miles runAvg speedWind from/ knotsBaromVisibWave heightAir tempDewpointWater temp
2018-Feb-16 19:43N 32°19' W 117°34'411.3
2018-Feb-16 19:19N 32°24' W 117°36'411.5
2018-Feb-16 19:00N 32°27' W 117°37'612.8
2018-Feb-16 18:30N 32°33' W 117°39'613.0
2018-Feb-16 18:00N 32°39' W 117°42'613.0
2018-Feb-16 17:30N 32°45' W 117°46'713.1
2018-Feb-16 17:01N 32°50' W 117°50'713.1
2018-Feb-16 16:30N 32°56' W 117°54'713.1
2018-Feb-16 16:00N 33°02' W 117°58'712.8
2018-Feb-16 15:28N 33°08' W 118°02'612.9
2018-Feb-16 15:00N 33°13' W 118°05'813.0
2018-Feb-16 14:24N 33°19' W 118°10'813.0
2018-Feb-16 13:50N 33°27' W 118°13'512.5
2018-Feb-16 13:28N 33°30' W 118°16'1512.7
2018-Feb-16 12:18N 33°38' W 118°31'412.1
2018-Feb-16 12:00N 33°41' W 118°32'612.5
2018-Feb-16 11:30N 33°47' W 118°30'710.0
2018-Feb-16 10:49N 33°54' W 118°28'  
2018-Feb-14 00:19N 33°54' W 118°27'0 0.0
2018-Feb-13 23:58N 33°54' W 118°27'0 0.6
2018-Feb-13 23:24N 33°54' W 118°27'3 2.3
2018-Feb-13 21:58N 33°52' W 118°30'1 2.3
2018-Feb-13 21:30N 33°51' W 118°30'3 6.5
2018-Feb-13 21:00N 33°47' W 118°30'4 7.9
2018-Feb-13 20:29N 33°43' W 118°29'5 8.4
2018-Feb-13 19:51N 33°40' W 118°24'3 8.2
2018-Feb-13 19:30N 33°39' W 118°21'5 9.9
2018-Feb-13 19:00N 33°38' W 118°15'5 9.7
2018-Feb-13 18:30N 33°39' W 118°10'3 5.7
2018-Feb-13 18:00N 33°41' W 118°07'0 0.1
2018-Feb-13 17:24N 33°41' W 118°08'0 0.0
2018-Feb-13 16:54N 33°41' W 118°08'0 0.0
2018-Feb-13 16:30N 33°41' W 118°08'0 0.0
2018-Feb-13 16:00N 33°41' W 118°08'0 0.0
2018-Feb-13 15:24N 33°41' W 118°08'0 0.1
2018-Feb-13 15:00N 33°41' W 118°08'0 0.1
2018-Feb-13 12:01N 33°41' W 118°07'0 0.2
2018-Feb-13 11:46N 33°41' W 118°07'0 0.0
2018-Feb-13 11:28N 33°41' W 118°07'0 0.0
2018-Feb-13 10:58N 33°41' W 118°07'0 0.0
2018-Feb-13 10:28N 33°41' W 118°07'0 0.1
2018-Feb-13 09:52N 33°41' W 118°07'0 0.0
2018-Feb-13 09:25N 33°41' W 118°07'0 0.0
2018-Feb-13 06:16N 33°41' W 118°07'0 0.0
2018-Feb-13 03:10N 33°41' W 118°07'0 0.0
2018-Feb-13 02:46N 33°41' W 118°07'0 0.0
2018-Feb-13 01:43N 33°41' W 118°07'0 0.1
2018-Feb-13 01:28N 33°41' W 118°07'0 0.0
2018-Feb-13 00:58N 33°41' W 118°07'0 0.0
2018-Feb-13 00:28N 33°41' W 118°07'0 0.0
2018-Feb-12 23:55N 33°41' W 118°07'0 0.0
2018-Feb-12 23:28N 33°41' W 118°07'0 0.0
2018-Feb-12 22:58N 33°41' W 118°07'0 0.0
2018-Feb-12 22:28N 33°41' W 118°07'0 0.0
2018-Feb-12 21:58N 33°41' W 118°07'0 0.0
2018-Feb-12 21:28N 33°41' W 118°07'0 0.0
2018-Feb-12 20:58N 33°41' W 118°07'0 0.0
2018-Feb-12 20:28N 33°41' W 118°07'0 0.0
2018-Feb-12 19:58N 33°41' W 118°07'0 0.0
2018-Feb-12 19:28N 33°41' W 118°07'0 0.0
2018-Feb-12 18:58N 33°41' W 118°07'0 0.0
2018-Feb-12 18:28N 33°41' W 118°07'0 0.0
2018-Feb-12 17:58N 33°41' W 118°07'0 0.0
2018-Feb-12 17:28N 33°41' W 118°07'0 0.1
2018-Feb-12 16:52N 33°41' W 118°07'0 0.1
2018-Feb-12 16:28N 33°41' W 118°07'0 0.0
2018-Feb-12 15:58N 33°41' W 118°07'0 0.0
2018-Feb-12 15:16N 33°41' W 118°07'0 0.0
2018-Feb-12 14:55N 33°41' W 118°07'0 0.0
2018-Feb-12 14:04N 33°41' W 118°07'0 0.0
2018-Feb-12 13:52N 33°41' W 118°07'0 0.0
2018-Feb-12 12:58N 33°41' W 118°07'0 0.0
2018-Feb-12 05:46N 33°41' W 118°07'0 0.1
2018-Feb-12 04:25N 33°41' W 118°07'0 0.0
2018-Feb-12 03:52N 33°41' W 118°07'0 0.0
2018-Feb-12 01:43N 33°41' W 118°07'0 0.0
2018-Feb-12 01:28N 33°41' W 118°07'0 0.0
2018-Feb-12 00:58N 33°41' W 118°07'0 0.0
2018-Feb-12 00:28N 33°41' W 118°07'0 0.0
2018-Feb-11 23:58N 33°41' W 118°07'0 0.0
2018-Feb-11 23:28N 33°41' W 118°07'0 0.0
2018-Feb-11 22:58N 33°41' W 118°07'0 0.0
2018-Feb-11 22:28N 33°41' W 118°07'0 0.0
2018-Feb-11 21:58N 33°41' W 118°07'0 0.0
2018-Feb-11 21:28N 33°41' W 118°07'0 0.0
2018-Feb-11 20:58N 33°41' W 118°07'0 0.0
2018-Feb-11 20:28N 33°41' W 118°07'0 0.0
2018-Feb-11 19:58N 33°41' W 118°07'0 0.1
2018-Feb-11 19:28N 33°41' W 118°07'0 0.0
2018-Feb-11 18:58N 33°41' W 118°07'0 0.0
2018-Feb-11 18:28N 33°41' W 118°07'0 0.0
2018-Feb-11 17:58N 33°41' W 118°07'0 0.0
2018-Feb-11 17:28N 33°41' W 118°07'0 0.0
2018-Feb-11 16:58N 33°41' W 118°07'0 0.0
2018-Feb-11 16:28N 33°41' W 118°07'0 0.1
2018-Feb-11 15:55N 33°41' W 118°07'0 0.1
2018-Feb-11 15:28N 33°41' W 118°07'0 0.0
2018-Feb-11 14:58N 33°41' W 118°07'0 0.0
2018-Feb-11 14:19N 33°41' W 118°07'0 0.0
2018-Feb-11 01:40N 33°41' W 118°07'0 0.0
2018-Feb-11 01:22N 33°41' W 118°07'0 0.0
2018-Feb-11 00:49N 33°41' W 118°07'0 0.0
2018-Feb-11 00:28N 33°41' W 118°07'0 0.0
2018-Feb-10 23:58N 33°41' W 118°07'0 0.1
2018-Feb-10 23:28N 33°41' W 118°08'0 0.0
2018-Feb-10 22:58N 33°41' W 118°08'0 0.0
2018-Feb-10 22:28N 33°41' W 118°08'0 0.0
2018-Feb-10 21:58N 33°41' W 118°08'0 0.0
2018-Feb-10 21:22N 33°41' W 118°08'0 0.0
2018-Feb-10 20:58N 33°41' W 118°08'0 0.0
2018-Feb-10 20:28N 33°41' W 118°08'0 0.0
2018-Feb-10 19:34N 33°41' W 118°08'0 0.0
2018-Feb-10 19:28N 33°41' W 118°08'0 0.1
2018-Feb-10 18:58N 33°41' W 118°08'0 0.0
2018-Feb-10 18:28N 33°41' W 118°08'0 0.0
2018-Feb-10 17:55N 33°41' W 118°08'0 0.1
2018-Feb-10 17:28N 33°41' W 118°08'0 0.0
2018-Feb-10 16:58N 33°41' W 118°08'0 0.0
2018-Feb-10 16:28N 33°41' W 118°08'0 0.0
2018-Feb-10 15:58N 33°41' W 118°08'0 0.0
2018-Feb-10 15:19N 33°41' W 118°08'0 0.0
2018-Feb-10 09:34N 33°41' W 118°08'0 0.0
2018-Feb-10 09:16N 33°41' W 118°08'0 0.0
2018-Feb-10 08:04N 33°41' W 118°07'0 0.0
2018-Feb-10 07:52N 33°41' W 118°07'0 0.1
2018-Feb-10 07:22N 33°41' W 118°08'0 0.1
2018-Feb-10 06:58N 33°41' W 118°07'0 0.1
2018-Feb-10 06:28N 33°41' W 118°08'0 0.0
2018-Feb-10 05:58N 33°41' W 118°08'0 0.0
2018-Feb-10 05:28N 33°41' W 118°08'0 0.0
2018-Feb-10 04:58N 33°41' W 118°08'0 0.1
2018-Feb-10 04:13N 33°41' W 118°07'0 0.0
2018-Feb-10 03:58N 33°41' W 118°07'0 0.1
2018-Feb-10 03:28N 33°41' W 118°07'0 0.0
2018-Feb-10 02:55N 33°41' W 118°07'0 0.0
2018-Feb-10 02:28N 33°41' W 118°07'0 0.0
2018-Feb-10 01:52N 33°41' W 118°07'0 0.0
2018-Feb-10 01:28N 33°41' W 118°07'0 0.0
2018-Feb-10 00:58N 33°41' W 118°07'0 0.1
2018-Feb-10 00:25N 33°41' W 118°07'0 0.0
2018-Feb-09 23:58N 33°41' W 118°07'0 0.0
2018-Feb-09 23:28N 33°41' W 118°07'0 0.0
2018-Feb-09 22:58N 33°41' W 118°07'0 0.0
2018-Feb-09 22:46N 33°41' W 118°07'0 0.0
2018-Feb-08 01:25N 33°41' W 118°07'0 0.0
2018-Feb-08 00:58N 33°41' W 118°07'0 0.0
2018-Feb-08 00:28N 33°41' W 118°07'0 0.0
2018-Feb-07 23:58N 33°41' W 118°07'0 0.0
2018-Feb-07 23:28N 33°41' W 118°07'0 0.0
2018-Feb-07 22:58N 33°41' W 118°07'0 0.0
2018-Feb-07 22:28N 33°41' W 118°07'0 0.0
2018-Feb-07 21:58N 33°41' W 118°07'0 0.0
2018-Feb-07 21:31N 33°41' W 118°07'0 0.0
2018-Feb-07 09:19N 33°41' W 118°07'0 0.0
2018-Feb-07 08:58N 33°41' W 118°07'0 0.0
2018-Feb-07 08:28N 33°41' W 118°07'0 0.0
2018-Feb-07 07:58N 33°41' W 118°07'0 0.0
2018-Feb-07 06:43N 33°41' W 118°07'0 0.0
2018-Feb-07 05:28N 33°41' W 118°07'0 0.1
2018-Feb-07 04:43N 33°41' W 118°07'0 0.0
2018-Feb-07 04:28N 33°41' W 118°07'0 0.0
2018-Feb-07 03:58N 33°41' W 118°07'0 0.1
2018-Feb-07 03:28N 33°41' W 118°07'0 0.0
2018-Feb-07 02:58N 33°41' W 118°07'0 0.0
2018-Feb-07 02:28N 33°41' W 118°07'0 0.0
2018-Feb-07 01:58N 33°41' W 118°07'0 0.0
2018-Feb-07 00:55N 33°41' W 118°07'0 0.0
2018-Feb-07 00:28N 33°41' W 118°07'0 0.0
2018-Feb-06 23:58N 33°41' W 118°07'0 0.0
2018-Feb-06 23:28N 33°41' W 118°07'0 0.0
2018-Feb-06 22:58N 33°41' W 118°07'0 0.1
2018-Feb-06 22:28N 33°41' W 118°07'0 0.0
2018-Feb-06 21:58N 33°41' W 118°07'0 0.0
2018-Feb-06 21:28N 33°41' W 118°07'0 0.1
2018-Feb-06 20:58N 33°41' W 118°07'0 0.0
2018-Feb-06 20:28N 33°41' W 118°07'0 0.0
2018-Feb-06 19:58N 33°41' W 118°07'  

Dump ship's entire track history